Main page
METAR-TAF:

METAR-TAF

Airports :

Antwerp International Airport

Antwerp, Belgium

latitude: 51-12N, longitude: 004-28E, elevation: 12 m

Current weather observation

The report was made 34 minutes ago, at 00:50 UTC
Wind 6 kt from the South/Southeast
Temperature 15°C
Humidity 67%
Pressure 996 hPa
Visibility 10 km or more
no clouds below 1500 m and no cumulonimbus

METAR: EBAW 240050Z AUTO 16006KT CAVOK 15/09 Q0996

Time: 03:24 (01:24 UTC)

Forecast

The report was made 2 hours and 14 minutes ago, at 23:10 UTC
Forecast valid from 24 at 00 UTC to 24 at 09 UTC
Wind 7 kt from the South
Visibility 10 km or more
no clouds below 1500 m and no cumulonimbus
Probability 30% :
Temporary
from 24 at 08 UTC to 24 at 09 UTC
Wind 15 kt from the South with gusts up to 25 kt

TAF: EBAW 232310Z 2400/2409 17007KT CAVOK PROB30 TEMPO 2408/2409 18015G25KT

Weather observations and forecasts of more than 4000 airports (METAR and TAF reports).

The available stations are represented by yellow and red dots on the map.

Hover mouse over dot to see the name of the station.

Then click to see weather observations and forecasts.

To change the map : click on the green buttons with a black cross to zoom in, on the green button with a dash to zoom out, or on the green arrows for adjacent maps.


METAR-TAF: